Terminal Aerodrome Forecast
Issued by NWS

Home | Current Version | Previous Version | Text Only | Print | Product List | Glossary On
Versions: 1 2 3 4 5 6 7 8 9 10 11 12 13 14 15
230
FTUS43 KPAH 301019 AAB
TAFCGI
TAF AMD
KCGI 301019Z 3010/0106 12012G18KT 5SM -SHRA BR BKN015 OVC060
      TEMPO 3010/3013 2SM TSRA BR BKN007CB
     FM301600 20012G19KT P6SM SCT025 BKN150
     FM302200 18006KT P6SM SCT040 BKN250 PROB30 3023/0103 4SM TSRA
      BKN035CB=

USA.gov is the U.S. government's official web portal to all federal, state and local government web resources and services.